createdAt,value
2018-04-30T11:53:48.739Z,21.95
2018-04-30T11:56:14.635Z,21.56
2018-04-30T11:58:40.515Z,21.29
2018-04-30T12:01:08.053Z,20.91
2018-04-30T12:03:33.939Z,20.64
2018-04-30T12:05:59.832Z,20.26
2018-04-30T12:08:25.982Z,20.13
2018-04-30T12:10:51.876Z,19.86
2018-04-30T12:13:17.771Z,19.80
2018-04-30T12:15:43.781Z,19.70
2018-04-30T12:18:09.690Z,19.47
2018-04-30T12:20:35.622Z,19.30
2018-04-30T12:23:01.555Z,19.46
2018-04-30T12:25:27.473Z,19.64
2018-04-30T12:27:53.382Z,20.11
2018-04-30T12:30:19.291Z,20.73
2018-04-30T12:32:45.329Z,20.82
2018-04-30T12:35:11.296Z,21.17
2018-04-30T12:37:37.212Z,21.71
2018-04-30T12:40:03.094Z,21.93
2018-04-30T12:42:28.988Z,22.32
2018-04-30T12:44:54.920Z,22.46
2018-04-30T12:47:21.035Z,22.58
2018-04-30T12:49:47.040Z,22.74
2018-04-30T12:52:13.071Z,22.92
2018-04-30T12:54:39.010Z,22.66
2018-04-30T12:57:04.952Z,22.17
2018-04-30T12:59:30.884Z,22.16
2018-04-30T13:01:56.763Z,21.89
2018-04-30T13:04:22.670Z,21.99
2018-04-30T13:06:48.588Z,22.17
2018-04-30T13:09:14.483Z,22.14
2018-04-30T13:11:40.382Z,22.15
2018-04-30T13:14:06.324Z,22.23
2018-04-30T13:16:32.212Z,22.14
2018-04-30T13:18:58.110Z,22.11
2018-04-30T13:21:24.315Z,22.25
2018-04-30T13:23:50.179Z,22.77
2018-04-30T13:26:16.094Z,22.74
2018-04-30T13:28:42.223Z,22.78
2018-04-30T13:31:08.031Z,22.70
2018-04-30T13:33:34.012Z,22.50
2018-04-30T13:35:59.967Z,23.00
2018-04-30T13:38:25.857Z,23.02
2018-04-30T13:40:51.796Z,22.77
2018-04-30T13:43:17.724Z,22.73
2018-04-30T13:45:43.627Z,22.61
2018-04-30T13:48:09.499Z,22.69
2018-04-30T13:50:35.403Z,22.87
2018-04-30T13:53:01.274Z,22.98
2018-04-30T13:55:27.251Z,23.16
2018-04-30T13:57:55.445Z,23.40
2018-04-30T14:00:21.506Z,23.03
2018-04-30T14:02:47.383Z,22.60
2018-04-30T14:05:13.295Z,22.15
2018-04-30T14:07:39.173Z,22.26
2018-04-30T14:10:05.207Z,22.56
2018-04-30T14:12:31.111Z,22.42
2018-04-30T14:14:57.016Z,22.34
2018-04-30T14:17:22.956Z,22.07
2018-04-30T14:19:49.065Z,21.61
2018-04-30T14:22:14.974Z,21.71
2018-04-30T14:24:40.835Z,22.16
2018-04-30T14:27:06.748Z,22.26
2018-04-30T14:29:32.657Z,22.13
2018-04-30T14:31:59.161Z,21.66
2018-04-30T14:34:25.344Z,21.44
2018-04-30T14:36:51.274Z,21.60
2018-04-30T14:39:17.157Z,21.71
2018-04-30T14:41:43.088Z,21.87
2018-04-30T14:44:09.169Z,21.71
2018-04-30T14:46:34.976Z,21.72
2018-04-30T14:49:00.913Z,21.51
2018-04-30T14:51:26.917Z,21.46
2018-04-30T14:53:52.846Z,21.31
2018-04-30T14:56:18.916Z,21.37
2018-04-30T14:58:44.801Z,21.29
2018-04-30T15:01:10.720Z,21.06
2018-04-30T15:03:36.893Z,21.32
2018-04-30T15:06:02.942Z,21.44
2018-04-30T15:08:28.839Z,21.27
2018-04-30T15:10:54.753Z,21.34
2018-04-30T15:13:20.933Z,21.19
2018-04-30T15:15:46.837Z,21.01
2018-04-30T15:18:13.985Z,21.21
2018-04-30T15:20:40.083Z,21.29
2018-04-30T15:23:06.540Z,21.07
2018-04-30T15:25:33.737Z,21.13
2018-04-30T15:27:59.611Z,21.30
2018-04-30T15:30:25.499Z,21.16
2018-04-30T15:32:51.424Z,21.39
2018-04-30T15:35:17.293Z,21.37
2018-04-30T15:37:43.174Z,21.22
2018-04-30T15:40:09.090Z,21.33
2018-04-30T15:42:35.091Z,21.19
2018-04-30T15:45:01.478Z,21.07
2018-04-30T15:47:27.385Z,20.95
2018-04-30T15:49:53.983Z,20.86
2018-04-30T15:52:19.869Z,21.06
2018-04-30T15:54:46.505Z,21.13
2018-04-30T15:57:12.440Z,21.04
2018-04-30T15:59:39.389Z,20.93
2018-04-30T16:02:05.295Z,20.83
2018-04-30T16:04:31.160Z,20.64
2018-04-30T16:06:57.165Z,20.55
2018-04-30T16:09:23.359Z,20.55
2018-04-30T16:11:49.275Z,20.64
2018-04-30T16:14:15.216Z,20.61
2018-04-30T16:16:41.070Z,20.61
2018-04-30T16:19:08.077Z,20.53
2018-04-30T16:21:34.782Z,20.45
2018-04-30T16:24:01.940Z,20.37
2018-04-30T16:26:27.825Z,20.32
2018-04-30T16:28:53.692Z,20.25
2018-04-30T16:31:20.949Z,20.23
2018-04-30T16:33:46.863Z,20.14
2018-04-30T16:36:12.751Z,20.12
2018-04-30T16:38:38.654Z,20.01
2018-04-30T16:41:04.523Z,19.92
2018-04-30T16:43:30.396Z,19.81
2018-04-30T16:45:56.332Z,19.62
2018-04-30T16:48:22.229Z,19.58
2018-04-30T16:50:48.091Z,19.50
2018-04-30T16:53:15.750Z,19.48
2018-04-30T16:55:41.677Z,19.35
2018-04-30T16:58:07.605Z,19.28
2018-04-30T17:00:33.512Z,19.21
2018-04-30T17:02:59.508Z,19.13
2018-04-30T17:05:25.396Z,19.07
2018-04-30T17:07:51.392Z,18.95
2018-04-30T17:10:17.272Z,18.91
2018-04-30T17:12:43.135Z,18.89
2018-04-30T17:15:10.188Z,18.84
2018-04-30T17:17:36.055Z,18.75
2018-04-30T17:20:03.791Z,18.58
2018-04-30T17:22:30.123Z,18.52
2018-04-30T17:24:56.057Z,18.48
2018-04-30T17:27:21.937Z,18.48
2018-04-30T17:29:47.871Z,18.40
2018-04-30T17:32:13.731Z,18.31
2018-04-30T17:34:39.924Z,18.27
2018-04-30T17:37:05.831Z,18.14
2018-04-30T17:39:31.697Z,18.02
2018-04-30T17:41:57.597Z,17.82
2018-04-30T17:44:23.523Z,17.80
2018-04-30T17:46:49.472Z,17.62
2018-04-30T17:49:15.485Z,17.53
2018-04-30T17:51:41.385Z,17.56
2018-04-30T17:54:07.319Z,17.48
2018-04-30T17:56:33.171Z,17.30
2018-04-30T17:58:59.099Z,17.15
2018-04-30T18:01:25.036Z,16.93
2018-04-30T18:03:50.933Z,16.73
2018-04-30T18:06:16.855Z,16.52
2018-04-30T18:08:42.729Z,16.32
2018-04-30T18:11:08.596Z,16.15
2018-04-30T18:13:34.517Z,15.97
2018-04-30T18:16:00.405Z,15.77
2018-04-30T18:18:26.260Z,15.67
2018-04-30T18:20:52.172Z,15.59
2018-04-30T18:23:18.053Z,15.46
2018-04-30T18:25:44.254Z,15.37
2018-04-30T18:28:10.675Z,15.26
2018-04-30T18:30:36.543Z,15.14
2018-04-30T18:33:02.805Z,15.03
2018-04-30T18:35:28.798Z,14.90
2018-04-30T18:37:54.826Z,14.81
2018-04-30T18:40:20.736Z,14.77
2018-04-30T18:42:47.177Z,14.65
2018-04-30T18:45:13.083Z,14.54
2018-04-30T18:47:38.940Z,14.43
2018-04-30T18:50:05.031Z,14.31
2018-04-30T18:52:30.939Z,14.21
2018-04-30T18:54:56.824Z,14.12
2018-04-30T18:57:23.087Z,14.01
2018-04-30T18:59:48.959Z,13.94
2018-04-30T19:02:14.915Z,13.90
2018-04-30T19:04:40.841Z,13.79
2018-04-30T19:07:06.706Z,13.71
2018-04-30T19:09:32.575Z,13.62
2018-04-30T19:11:58.503Z,13.50
2018-04-30T19:14:24.476Z,13.43
2018-04-30T19:16:50.443Z,13.30
2018-04-30T19:19:16.495Z,13.23
2018-04-30T19:21:42.351Z,13.12
2018-04-30T19:24:08.206Z,13.01
2018-04-30T19:26:34.341Z,12.92
2018-04-30T19:29:00.298Z,12.87
2018-04-30T19:31:26.171Z,12.84
2018-04-30T19:33:52.350Z,12.75
2018-04-30T19:36:18.181Z,12.73
2018-04-30T19:38:44.057Z,12.73
2018-04-30T19:41:09.963Z,12.66
2018-04-30T19:43:35.990Z,12.70
2018-04-30T19:46:01.948Z,12.74
2018-04-30T19:48:27.877Z,12.74
2018-04-30T19:50:53.901Z,12.75
2018-04-30T19:53:19.788Z,12.72
2018-04-30T19:55:45.994Z,12.68
2018-04-30T19:58:11.931Z,12.62
2018-04-30T20:00:37.859Z,12.52
2018-04-30T20:03:03.793Z,12.52
2018-04-30T20:05:29.663Z,12.44
2018-04-30T20:07:55.553Z,12.38
2018-04-30T20:10:21.538Z,12.33
2018-04-30T20:12:47.445Z,12.26
2018-04-30T20:15:13.336Z,12.22
2018-04-30T20:17:39.270Z,12.17
2018-04-30T20:20:05.168Z,12.19
2018-04-30T20:22:31.049Z,12.16
2018-04-30T20:24:57.023Z,12.14
2018-04-30T20:27:23.042Z,12.16
2018-04-30T20:29:48.970Z,12.17
2018-04-30T20:32:15.023Z,12.22
2018-04-30T20:34:40.947Z,12.26
2018-04-30T20:37:06.815Z,12.27
2018-04-30T20:39:32.742Z,12.32
2018-04-30T20:41:58.647Z,12.32
2018-04-30T20:44:24.574Z,12.33
2018-04-30T20:46:50.469Z,12.31
2018-04-30T20:49:16.342Z,12.27
2018-04-30T20:51:42.233Z,12.17
2018-04-30T20:54:08.164Z,12.08
2018-04-30T20:56:34.201Z,11.98
2018-04-30T20:59:00.074Z,12.24
2018-04-30T21:01:26.005Z,12.11
2018-04-30T21:03:51.952Z,11.99
2018-04-30T21:06:17.815Z,11.96
2018-04-30T21:11:43.596Z,11.83
2018-04-30T21:14:09.513Z,11.77
2018-04-30T21:16:35.399Z,11.64
2018-04-30T21:19:01.254Z,11.65
2018-04-30T21:21:27.279Z,11.59
2018-04-30T21:23:53.126Z,11.54
2018-04-30T21:26:19.032Z,11.48
2018-04-30T21:28:45.023Z,11.38
2018-04-30T21:31:11.151Z,11.34
2018-04-30T21:33:37.501Z,11.30
2018-04-30T21:36:03.893Z,11.23
2018-04-30T21:38:30.080Z,11.20
2018-04-30T21:40:56.247Z,11.17
2018-04-30T21:43:22.623Z,11.18
2018-04-30T21:45:48.716Z,11.21
2018-04-30T21:48:14.988Z,11.18
2018-04-30T21:50:41.154Z,11.20
2018-04-30T21:53:07.335Z,11.25
2018-04-30T21:55:33.408Z,11.22
2018-04-30T21:57:59.478Z,11.13
2018-04-30T22:00:27.544Z,11.10
2018-04-30T22:02:53.701Z,11.06
2018-04-30T22:05:20.060Z,10.98
2018-04-30T22:07:46.269Z,10.88
2018-04-30T22:10:12.238Z,10.84
2018-04-30T22:12:38.238Z,10.77
2018-04-30T22:15:04.459Z,10.69
2018-04-30T22:17:30.818Z,10.65
2018-04-30T22:19:57.257Z,10.55
2018-04-30T22:22:23.604Z,10.49
2018-04-30T22:24:49.547Z,10.39
2018-04-30T22:27:15.475Z,10.29
2018-04-30T22:29:41.388Z,10.28
2018-04-30T22:32:07.259Z,10.24
2018-04-30T22:34:33.232Z,10.15
2018-04-30T22:36:59.099Z,10.10
2018-04-30T22:39:24.972Z,10.06
2018-04-30T22:41:51.274Z,10.03
2018-04-30T22:44:17.142Z,10.01
2018-04-30T22:46:43.079Z,9.96
2018-04-30T22:49:08.983Z,9.92
2018-04-30T22:51:34.875Z,9.92
2018-04-30T22:54:00.731Z,9.94
2018-04-30T22:56:26.644Z,9.95
2018-04-30T22:58:52.558Z,9.93
2018-04-30T23:01:18.429Z,9.94
2018-04-30T23:03:44.351Z,9.96
2018-04-30T23:06:10.311Z,9.93
2018-04-30T23:08:36.197Z,10.06
2018-04-30T23:11:02.172Z,10.16
2018-04-30T23:13:28.059Z,10.10
2018-04-30T23:15:53.932Z,10.06
2018-04-30T23:18:20.231Z,10.01
2018-04-30T23:20:46.097Z,9.98
2018-04-30T23:23:12.057Z,9.96
2018-04-30T23:25:37.987Z,9.87
2018-04-30T23:28:03.855Z,9.82
2018-04-30T23:30:29.799Z,9.75
2018-04-30T23:32:55.874Z,9.71
2018-04-30T23:35:21.823Z,9.68
2018-04-30T23:37:47.684Z,9.60
2018-04-30T23:40:13.615Z,9.56
2018-04-30T23:42:39.565Z,9.54
2018-04-30T23:45:05.456Z,9.52
2018-04-30T23:47:31.411Z,9.48
2018-04-30T23:49:57.254Z,9.49
2018-04-30T23:52:23.133Z,9.45
2018-04-30T23:54:49.117Z,9.47
2018-04-30T23:57:14.986Z,9.51
2018-04-30T23:59:40.922Z,9.63
